Friday, December 14, 2018, 12:56 PM EST
Back to Local

KPVC, Provincetown, Provincetown Municipal Airport

Location: Provincetown, MA, United States Lat: 42.067
Local Time: 12:56 PM EST (17:56 GMT) Lon: -70.217
Time Zone: US/Eastern Elev: 6 ft

Show me the last for .
Show Decoded

2018-12-14 11:56 METAR KPVC 141656Z AUTO 18009KT 10SM CLR 06/00 A3048 RMK AO2 SLP320 T00610000 =
2018-12-14 10:56 METAR KPVC 141556Z AUTO 15009KT 10SM CLR 06/00 A3050 RMK AO2 SLP328 T00610000 =
2018-12-14 09:56 METAR KPVC 141456Z AUTO 16009KT 10SM CLR 05/00 A3054 RMK AO2 SLP340 T00500000
                 58001 =
2018-12-14 08:56 METAR KPVC 141356Z AUTO 15006KT 10SM CLR 04/01 A3054 RMK AO2 SLP340 T00440011 =
2018-12-14 07:56 METAR KPVC 141256Z AUTO 17004KT 10SM CLR 01/00 A3055 RMK AO2 SLP344 T00060000
                 FZRANO =
2018-12-14 06:56 METAR KPVC 141156Z AUTO 17004KT 10SM CLR M06/M07 A3054 RMK AO2 SLP341 T10611072
                 11039 21061 55003 FZRANO =
2018-12-14 05:56 METAR KPVC 141056Z AUTO 14003KT 10SM CLR M06/M07 A3053 RMK AO2 SLP338 T10611072
                 FZRANO =
2018-12-14 04:56 METAR KPVC 140956Z AUTO 13003KT 10SM CLR M06/M08 A3053 RMK AO2 SLP337 T10611078
                 FZRANO =
2018-12-14 03:56 METAR KPVC 140856Z AUTO 14003KT 10SM CLR M06/M07 A3055 RMK AO2 SLP344 T10611072
                 58006 FZRANO =
2018-12-14 02:56 METAR KPVC 140756Z AUTO 13003KT 10SM CLR M06/M07 A3057 RMK AO2 SLP353 T10611072
                 FZRANO =
2018-12-14 01:56 METAR KPVC 140656Z AUTO 00000KT 10SM CLR M06/M07 A3058 RMK AO2 SLP356 T10561072
                 FZRANO =
2018-12-14 00:56 METAR KPVC 140556Z AUTO 00000KT 10SM CLR M04/M06 A3057 RMK AO2 SLP351 T10391056
                 11022 21050 55006 FZRANO =
2018-12-13 23:56 METAR KPVC 140456Z AUTO 15004KT 10SM CLR M05/M06 A3056 RMK AO2 SLP347 T10501061
                 400171050 FZRANO =
2018-12-13 22:56 METAR KPVC 140356Z AUTO 14005KT 10SM CLR M04/M06 A3057 RMK AO2 SLP352 T10441056
                 FZRANO =
2018-12-13 21:56 METAR KPVC 140256Z AUTO 00000KT 10SM CLR M04/M06 A3059 RMK AO2 SLP357 T10441061
                 53003 FZRANO =
2018-12-13 20:56 METAR KPVC 140156Z AUTO 11003KT 10SM CLR M04/M06 A3058 RMK AO2 SLP355 T10441061
                 FZRANO =
2018-12-13 19:56 METAR KPVC 140056Z AUTO 13003KT 10SM CLR M03/M06 A3058 RMK AO2 SLP355 T10331061
                 FZRANO =
2018-12-13 18:56 METAR KPVC 132356Z AUTO 00000KT 10SM CLR M02/M06 A3058 RMK AO2 SLP354 T10221061
                 10017 21022 51009 FZRANO =
2018-12-13 17:56 METAR KPVC 132256Z AUTO 14003KT 10SM FEW095 00/M06 A3057 RMK AO2 SLP351
                 T00001056 FZRANO =
2018-12-13 16:56 METAR KPVC 132156Z AUTO 00000KT 10SM CLR M01/M06 A3056 RMK AO2 SLP349 T10061056
                 FZRANO =
2018-12-13 15:56 METAR KPVC 132056Z AUTO 09003KT 10SM FEW100 01/M06 A3055 RMK AO2 SLP345
                 T00061061 53007 FZRANO =
2018-12-13 14:56 METAR KPVC 131956Z AUTO 00000KT 10SM CLR 01/M07 A3054 RMK AO2 SLP341 T00061067
                 FZRANO =
2018-12-13 13:56 METAR KPVC 131856Z AUTO 00000KT 10SM BKN031 01/M07 A3054 RMK AO2 SLP339
                 T00111067 FZRANO =

Support USWX by starting your Amazon purchase here.